Decoded Metar for LFLP (ANNECY in FRANCE) (IATA:NCY) | Meteo·Mobile Aviation Weather
aviador You're here:

LFLP Decoded Metar

ANNECY in FRANCE
Report Time2018-12-14 12:00:00
UTC Time2018-12-14 12:16:10
Flight Rules mvfr MVFR
Wind330° at 05 kt
W.Decomp.*RWY 04: 1.7 kt HW 4.7 kt LCW
W.Rank330° ranks 22
Current wind is below 330° avg. (5.0)
Visibility9999 m
Phenomena:N/A
Clouds:Overcast 022 Hf
Expected CloudBase > 2,000 ft AGL from Temp-Dew spread
Ceiling2,200 ft
Temp03°C (ISA -9)
Dew Point-2°C (70% RH)
AAT-1.1°C
QNH1015 hPa
Density Alt443 ft
Elevation1,519 ft
Report Wrong Elevation
Raw Report
METAR LFLP 141200Z AUTO 33005KT 9999 OVC022 03/M02 Q1015 NOSIG=

Extra information for LFLP:More info

Metar Taf Metar & Taf Last 4 Metars F.Rules Stats Wind Profile Meteogram Temp Stats Airport Information Weather charts Add Link Nearby VenuesMetar ALERT Operation Metar Decoded Social comments